Time;durP1;ratioP1;P1;durP2;ratioP2;P2;SDS_P1;SDS_P2;PMS_P1;PMS_P2;Temp;Humidity;BMP_temperature;BMP_pressure;BME280_temperature;BME280_humidity;BME280_pressure;Samples;Min_cycle;Max_cycle;Signal;HPM_P1;HPM_P2
2023/05/09 00:00:22;;;;;;;6.93;3.70;;;15.80;99.90;;;;;;5012309;28;20034;-72
2023/05/09 00:02:48;;;;;;;9.55;3.83;;;15.80;99.90;;;;;;5012099;28;20026;-73
2023/05/09 00:05:14;;;;;;;5.72;3.97;;;15.70;99.90;;;;;;5012415;28;20022;-72
2023/05/09 00:07:41;;;;;;;6.50;3.63;;;15.70;99.90;;;;;;5012367;28;20414;-73
2023/05/09 00:10:07;;;;;;;;;;;15.80;99.90;;;;;;5010588;28;20018;-73
2023/05/09 00:12:34;;;;;;;7.88;3.80;;;15.70;99.90;;;;;;5006753;28;19917;-72
2023/05/09 00:15:00;;;;;;;7.90;4.00;;;15.80;99.90;;;;;;5003209;28;20347;-72
2023/05/09 00:17:27;;;;;;;6.13;3.73;;;15.80;99.90;;;;;;5005562;28;20637;-72
2023/05/09 00:19:54;;;;;;;8.27;3.83;;;15.70;99.90;;;;;;5008796;28;20083;-70
2023/05/09 00:22:22;;;;;;;;;;;15.70;99.90;;;;;;5010318;28;20045;-70
2023/05/09 00:24:50;;;;;;;9.88;3.88;;;15.60;99.90;;;;;;5009100;28;19920;-70
2023/05/09 00:27:17;;;;;;;6.57;3.88;;;15.50;99.90;;;;;;5000956;28;20459;-73
2023/05/09 00:29:44;;;;;;;9.05;3.95;;;15.50;99.90;;;;;;5001107;28;20028;-71
2023/05/09 00:32:10;;;;;;;9.77;4.30;;;15.50;99.90;;;;;;5011393;28;20077;-69
2023/05/09 00:34:36;;;;;;;8.40;3.83;;;15.50;99.90;;;;;;5011574;28;20045;-72
2023/05/09 00:37:02;;;;;;;10.70;4.07;;;15.50;99.90;;;;;;5011744;28;20036;-73
2023/05/09 00:39:29;;;;;;;9.13;4.03;;;15.50;99.90;;;;;;5011412;28;20315;-73
2023/05/09 00:41:56;;;;;;;8.25;3.97;;;15.40;99.90;;;;;;5011316;28;20026;-74
2023/05/09 00:44:22;;;;;;;7.82;4.10;;;15.50;99.90;;;;;;5011343;28;20040;-72
2023/05/09 00:46:48;;;;;;;9.23;4.30;;;15.40;99.90;;;;;;5011774;28;20018;-72
2023/05/09 00:49:14;;;;;;;11.73;4.20;;;15.40;99.90;;;;;;5011648;28;20113;-72
2023/05/09 00:51:40;;;;;;;7.13;4.00;;;15.40;99.90;;;;;;5011302;28;20326;-73
2023/05/09 00:54:07;;;;;;;9.57;3.60;;;15.50;99.90;;;;;;5011745;28;20103;-74
2023/05/09 00:56:33;;;;;;;9.68;4.35;;;15.50;99.90;;;;;;5011356;28;20056;-73
2023/05/09 00:59:03;;;;;;;10.18;4.05;;;15.40;99.90;;;;;;5011490;28;20053;-71
2023/05/09 01:01:29;;;;;;;8.70;3.80;;;15.40;99.90;;;;;;5012579;28;20026;-71
2023/05/09 01:03:55;;;;;;;10.60;3.88;;;15.40;99.90;;;;;;5015703;28;20025;-73
2023/05/09 01:06:55;;;;;;;9.27;3.88;;;15.40;99.90;;;;;;5007892;28;20089;-73
2023/05/09 01:09:42;;;;;;;9.15;3.78;;;15.40;99.90;;;;;;5003637;28;20052;-74
2023/05/09 01:12:41;;;;;;;7.63;3.60;;;15.40;99.90;;;;;;5015144;28;20105;-72
2023/05/09 01:15:36;;;;;;;9.48;3.67;;;15.40;99.90;;;;;;5015336;28;20022;-73
2023/05/09 01:18:13;;;;;;;10.93;3.93;;;15.40;99.90;;;;;;5006151;28;20052;-72
2023/05/09 01:20:45;;;;;;;8.63;3.28;;;15.40;99.90;;;;;;5002488;28;20033;-72
2023/05/09 01:23:29;;;;;;;9.52;3.38;;;15.40;99.90;;;;;;4995756;28;20044;-72
2023/05/09 01:26:07;;;;;;;9.43;3.92;;;15.40;99.90;;;;;;4995102;28;20054;-73
2023/05/09 01:29:01;;;;;;;8.68;4.20;;;15.50;99.90;;;;;;5010165;28;20045;-72
2023/05/09 01:31:28;;;;;;;9.73;3.70;;;15.50;99.90;;;;;;4991157;28;20069;-72
2023/05/09 01:33:59;;;;;;;7.05;3.80;;;15.50;99.90;;;;;;5009471;28;20101;-73
2023/05/09 01:36:29;;;;;;;10.68;3.72;;;15.40;99.90;;;;;;5015035;28;20030;-72
2023/05/09 01:38:57;;;;;;;5.65;3.67;;;15.50;99.90;;;;;;5008702;28;20390;-72
2023/05/09 01:41:25;;;;;;;9.35;4.10;;;15.40;99.90;;;;;;4995096;28;20390;-72
2023/05/09 01:43:52;;;;;;;13.27;4.68;;;15.40;99.90;;;;;;4994796;28;20100;-72
2023/05/09 01:46:20;;;;;;;7.22;3.55;;;15.30;99.90;;;;;;4994943;28;20045;-72
2023/05/09 01:48:48;;;;;;;8.75;4.50;;;15.30;99.90;;;;;;4995173;28;20033;-72
2023/05/09 01:51:16;;;;;;;12.38;4.15;;;15.30;99.90;;;;;;5003832;28;20034;-70
2023/05/09 01:53:43;;;;;;;8.65;4.20;;;15.20;99.90;;;;;;4993245;28;20031;-72
2023/05/09 01:56:21;;;;;;;9.05;4.68;;;15.10;99.90;;;;;;4994626;28;20360;-73
2023/05/09 01:58:49;;;;;;;10.63;3.85;;;15.00;99.90;;;;;;4994492;28;20037;-73
2023/05/09 02:01:17;;;;;;;8.98;4.57;;;15.00;99.90;;;;;;4994564;28;20030;-72
2023/05/09 02:03:46;;;;;;;11.70;4.57;;;15.00;99.90;;;;;;4994447;28;20106;-71
2023/05/09 02:06:14;;;;;;;9.90;4.35;;;14.90;99.90;;;;;;4994550;28;20030;-72
2023/05/09 02:08:40;;;;;;;8.35;4.55;;;14.80;99.90;;;;;;5009519;28;20068;-72
2023/05/09 02:11:06;;;;;;;11.13;5.13;;;14.80;99.90;;;;;;5013869;28;20097;-73
2023/05/09 02:13:33;;;;;;;10.23;4.50;;;14.70;99.90;;;;;;5013633;28;20037;-73
2023/05/09 02:15:59;;;;;;;8.25;5.32;;;14.70;99.90;;;;;;5012138;28;20275;-72
2023/05/09 02:18:26;;;;;;;8.32;4.70;;;14.70;99.90;;;;;;5012449;28;20064;-71
2023/05/09 02:20:52;;;;;;;7.45;4.90;;;14.70;99.90;;;;;;5012309;28;20084;-71
2023/05/09 02:23:19;;;;;;;8.25;4.68;;;14.60;99.90;;;;;;5013518;28;20112;-71
2023/05/09 02:25:45;;;;;;;;;;;14.60;99.90;;;;;;5013292;28;20054;-72
2023/05/09 02:28:13;;;;;;;9.77;5.05;;;14.60;99.90;;;;;;5012978;28;19983;-72
2023/05/09 02:30:43;;;;;;;6.78;4.40;;;14.60;99.90;;;;;;5013280;28;20032;-72
2023/05/09 02:33:11;;;;;;;8.18;4.65;;;14.60;99.90;;;;;;5001786;28;20027;-72
2023/05/09 02:35:38;;;;;;;10.02;5.13;;;14.50;99.90;;;;;;4994131;28;20050;-72
2023/05/09 02:38:05;;;;;;;12.88;4.95;;;14.50;99.90;;;;;;4993971;28;20034;-72
2023/05/09 02:40:32;;;;;;;10.02;5.20;;;14.50;99.90;;;;;;4993800;28;20102;-71
2023/05/09 02:42:58;;;;;;;11.35;5.70;;;14.40;99.90;;;;;;5008321;28;20489;-71
2023/05/09 02:45:25;;;;;;;13.17;5.30;;;14.30;99.90;;;;;;4993626;28;20048;-71
2023/05/09 02:47:51;;;;;;;10.98;5.20;;;14.30;99.90;;;;;;4993715;28;20741;-72
2023/05/09 02:50:17;;;;;;;8.70;5.37;;;14.30;99.90;;;;;;5017723;28;20458;-71
2023/05/09 02:52:43;;;;;;;8.13;5.27;;;14.30;99.90;;;;;;5013011;28;20344;-72
2023/05/09 02:55:09;;;;;;;12.27;5.30;;;14.20;99.90;;;;;;5013096;28;20048;-71
2023/05/09 02:57:36;;;;;;;9.48;4.95;;;14.20;99.90;;;;;;5012772;28;20273;-71
2023/05/09 03:00:08;;;;;;;8.63;4.80;;;14.30;99.90;;;;;;5012959;28;20073;-71
2023/05/09 03:02:34;;;;;;;8.30;4.63;;;14.30;99.90;;;;;;5013157;28;20037;-73
2023/05/09 03:05:01;;;;;;;8.00;4.88;;;14.30;99.90;;;;;;5012927;28;20084;-72
2023/05/09 03:07:28;;;;;;;;;;;14.30;99.90;;;;;;5013424;28;20105;-71
2023/05/09 03:09:54;;;;;;;7.20;4.30;;;14.30;99.90;;;;;;5028144;28;19912;-71
2023/05/09 03:12:20;;;;;;;6.13;3.85;;;14.40;99.90;;;;;;5012991;28;20041;-72
2023/05/09 03:14:46;;;;;;;8.93;3.67;;;14.40;99.90;;;;;;5012829;28;20092;-72
2023/05/09 03:17:16;;;;;;;10.65;4.00;;;14.40;99.90;;;;;;5011298;28;20041;-72
2023/05/09 03:19:42;;;;;;;9.23;4.07;;;14.30;99.90;;;;;;5012720;28;20049;-71
2023/05/09 03:22:08;;;;;;;6.40;3.88;;;14.30;99.90;;;;;;4996110;28;20085;-72
2023/05/09 03:24:34;;;;;;;6.63;4.10;;;14.40;99.90;;;;;;4992645;28;20047;-73
2023/05/09 03:27:00;;;;;;;6.03;4.13;;;14.40;99.90;;;;;;4993407;28;20030;-72
2023/05/09 03:29:26;;;;;;;6.20;3.97;;;14.40;99.90;;;;;;4993997;28;20616;-71
2023/05/09 03:31:52;;;;;;;6.82;3.65;;;14.40;99.90;;;;;;4992100;28;20046;-72
2023/05/09 03:34:18;;;;;;;7.33;3.67;;;14.50;99.90;;;;;;4993427;28;20018;-71
2023/05/09 03:36:45;;;;;;;7.37;4.00;;;14.50;99.90;;;;;;4993337;28;20026;-71
2023/05/09 03:39:11;;;;;;;7.10;4.00;;;14.60;99.90;;;;;;4993330;28;20730;-71
2023/05/09 03:41:37;;;;;;;6.77;4.00;;;14.60;99.90;;;;;;4993537;28;20030;-72
2023/05/09 03:44:04;;;;;;;6.03;4.10;;;14.50;99.90;;;;;;4993114;28;20266;-73
2023/05/09 03:46:30;;;;;;;8.95;3.80;;;14.50;99.90;;;;;;4993357;28;20076;-73
2023/05/09 03:48:56;;;;;;;6.07;3.80;;;14.50;99.90;;;;;;4993195;28;20037;-71
2023/05/09 03:51:22;;;;;;;9.10;3.90;;;14.50;99.90;;;;;;5011496;28;20286;-71
2023/05/09 03:53:48;;;;;;;6.23;4.13;;;14.60;99.90;;;;;;5013161;28;20463;-71
2023/05/09 03:56:14;;;;;;;9.05;3.92;;;14.70;99.90;;;;;;5012571;28;20077;-73
2023/05/09 03:58:40;;;;;;;6.13;4.23;;;14.70;99.90;;;;;;5012463;28;20030;-71
2023/05/09 04:01:07;;;;;;;8.57;4.40;;;14.70;99.90;;;;;;5012554;28;20034;-72
2023/05/09 04:03:33;;;;;;;9.85;4.35;;;14.70;99.90;;;;;;5012891;28;20077;-72
2023/05/09 04:05:59;;;;;;;8.18;4.25;;;14.70;99.90;;;;;;5012334;28;20017;-72
2023/05/09 04:08:26;;;;;;;6.70;4.00;;;14.60;99.90;;;;;;5012419;28;20034;-72
2023/05/09 04:10:52;;;;;;;;;;;14.60;99.90;;;;;;5012768;28;20074;-71
2023/05/09 04:13:18;;;;;;;6.25;4.00;;;14.50;99.90;;;;;;5012131;28;20020;-72
2023/05/09 04:15:44;;;;;;;10.57;4.38;;;14.50;99.90;;;;;;5012183;28;20026;-73
2023/05/09 04:18:10;;;;;;;5.20;3.80;;;14.60;99.90;;;;;;5013087;28;20062;-73
2023/05/09 04:20:36;;;;;;;6.63;4.30;;;14.60;99.90;;;;;;5013292;28;20304;-73
2023/05/09 04:23:02;;;;;;;8.23;3.90;;;14.60;99.90;;;;;;5013645;28;20140;-71
2023/05/09 04:25:29;;;;;;;12.77;4.13;;;14.60;99.90;;;;;;5005328;28;20473;-72
2023/05/09 04:27:56;;;;;;;6.80;3.63;;;14.60;99.90;;;;;;5000169;28;20027;-72
2023/05/09 04:30:25;;;;;;;;;;;14.70;99.90;;;;;;4994315;28;20387;-73
2023/05/09 04:32:54;;;;;;;7.28;3.88;;;14.70;99.90;;;;;;4993314;28;20077;-73
2023/05/09 04:35:20;;;;;;;6.65;3.60;;;14.70;99.90;;;;;;4993512;28;20023;-72
2023/05/09 04:37:46;;;;;;;8.07;3.63;;;14.80;99.90;;;;;;4992975;28;20122;-72
2023/05/09 04:40:13;;;;;;;13.68;4.00;;;14.70;99.90;;;;;;4993837;28;20485;-73
2023/05/09 04:42:40;;;;;;;5.70;3.40;;;14.70;99.90;;;;;;4993609;28;20434;-72
2023/05/09 04:45:06;;;;;;;6.38;3.55;;;14.80;99.90;;;;;;4993243;28;20023;-71
2023/05/09 04:47:33;;;;;;;5.60;3.55;;;14.80;99.90;;;;;;4993482;28;20109;-69
2023/05/09 04:49:59;;;;;;;7.57;3.78;;;14.80;99.90;;;;;;5000256;28;20014;-73
2023/05/09 04:52:25;;;;;;;7.20;3.58;;;14.80;99.90;;;;;;5012933;28;20030;-72
2023/05/09 04:54:51;;;;;;;6.85;3.72;;;14.80;99.90;;;;;;5013055;28;20354;-71
2023/05/09 04:57:17;;;;;;;9.80;4.30;;;15.00;99.90;;;;;;5012389;28;20493;-71
2023/05/09 04:59:43;;;;;;;5.50;3.63;;;15.00;99.90;;;;;;5011215;28;20521;-73
2023/05/09 05:02:09;;;;;;;7.10;3.57;;;15.00;99.90;;;;;;5011252;28;20705;-74
2023/05/09 05:04:35;;;;;;;11.80;3.67;;;15.10;99.90;;;;;;5011390;28;20053;-73
2023/05/09 05:07:01;;;;;;;9.10;4.13;;;15.10;99.90;;;;;;5012720;28;20061;-73
2023/05/09 05:09:27;;;;;;;8.33;3.80;;;15.10;99.90;;;;;;5012720;28;20022;-73
2023/05/09 05:11:53;;;;;;;7.80;3.37;;;15.20;99.90;;;;;;5012135;28;20030;-74
2023/05/09 05:14:19;;;;;;;8.05;3.38;;;15.20;99.90;;;;;;5012138;28;20533;-73
2023/05/09 05:16:46;;;;;;;9.80;3.70;;;15.20;99.90;;;;;;5012794;28;20029;-73
2023/05/09 05:19:12;;;;;;;8.05;3.50;;;15.20;99.90;;;;;;5027530;28;20056;-74
2023/05/09 05:21:38;;;;;;;8.50;3.73;;;15.20;99.90;;;;;;5010748;28;20029;-73
2023/05/09 05:24:04;;;;;;;9.82;3.58;;;15.20;99.90;;;;;;5012196;28;20026;-73
2023/05/09 05:26:30;;;;;;;15.32;4.40;;;15.30;99.90;;;;;;5012870;28;20137;-73
2023/05/09 05:28:56;;;;;;;7.83;3.40;;;15.30;99.90;;;;;;5012511;28;20494;-72
2023/05/09 05:31:22;;;;;;;8.93;3.60;;;15.20;99.90;;;;;;5011057;28;20033;-73
2023/05/09 05:33:48;;;;;;;8.67;3.70;;;15.20;99.90;;;;;;5012301;28;20394;-72
2023/05/09 05:36:14;;;;;;;8.83;3.33;;;15.20;99.90;;;;;;5012381;28;20026;-72
2023/05/09 05:38:40;;;;;;;8.55;3.60;;;15.30;99.90;;;;;;5012404;28;20045;-72
2023/05/09 05:41:10;;;;;;;9.13;3.70;;;15.30;99.90;;;;;;5012281;28;20028;-72
2023/05/09 05:43:37;;;;;;;9.07;3.50;;;15.30;99.90;;;;;;5011749;28;20100;-72
2023/05/09 05:46:03;;;;;;;9.82;3.33;;;15.30;99.90;;;;;;5010512;28;20092;-73
2023/05/09 05:48:29;;;;;;;12.85;3.95;;;15.40;99.90;;;;;;5014777;28;20105;-73
2023/05/09 05:50:55;;;;;;;6.63;2.93;;;15.30;99.90;;;;;;5015312;28;20053;-73
2023/05/09 05:53:21;;;;;;;8.77;3.80;;;15.30;99.90;;;;;;5015064;28;20034;-73
2023/05/09 05:55:48;;;;;;;12.32;3.65;;;15.40;99.90;;;;;;5014866;28;20273;-72
2023/05/09 05:58:14;;;;;;;9.45;3.60;;;15.50;99.90;;;;;;5015004;28;20133;-73
2023/05/09 06:00:40;;;;;;;9.02;3.72;;;15.50;99.90;;;;;;5014782;28;20148;-72
2023/05/09 06:03:06;;;;;;;6.47;3.63;;;15.60;99.90;;;;;;5014953;28;20117;-72
2023/05/09 06:05:32;;;;;;;10.93;3.17;;;15.60;99.90;;;;;;5029946;28;20045;-71
2023/05/09 06:07:58;;;;;;;9.25;3.35;;;15.70;99.90;;;;;;5014412;28;20032;-71
2023/05/09 06:10:24;;;;;;;9.02;3.33;;;15.80;99.90;;;;;;5012778;28;20030;-72
2023/05/09 06:12:50;;;;;;;8.02;3.72;;;15.90;99.90;;;;;;5013997;28;20044;-72
2023/05/09 06:15:16;;;;;;;7.63;3.40;;;16.10;99.90;;;;;;5014653;28;20087;-71
2023/05/09 06:17:42;;;;;;;5.68;2.88;;;16.10;99.90;;;;;;5014716;28;20061;-71
2023/05/09 06:20:09;;;;;;;10.95;3.00;;;16.10;99.90;;;;;;5014353;28;20102;-71
2023/05/09 06:22:35;;;;;;;7.20;3.03;;;16.20;99.90;;;;;;5014492;28;20037;-72
2023/05/09 06:25:02;;;;;;;7.70;2.63;;;16.20;99.90;;;;;;5014454;28;20430;-71
2023/05/09 06:27:28;;;;;;;6.07;2.70;;;16.40;99.90;;;;;;5014221;28;20260;-73
2023/05/09 06:29:54;;;;;;;8.13;2.37;;;16.20;99.90;;;;;;5013390;28;20485;-71
2023/05/09 06:32:20;;;;;;;7.00;3.00;;;16.10;99.90;;;;;;5014331;28;20342;-73
2023/05/09 06:34:47;;;;;;;7.37;2.57;;;16.10;99.90;;;;;;5014681;28;20608;-72
2023/05/09 06:37:13;;;;;;;6.88;2.75;;;16.00;99.90;;;;;;5014304;28;20358;-72
2023/05/09 06:39:39;;;;;;;5.72;2.58;;;16.00;99.90;;;;;;5014205;28;20026;-73
2023/05/09 06:42:05;;;;;;;6.03;2.43;;;16.00;99.90;;;;;;5014026;28;20117;-74
2023/05/09 06:44:31;;;;;;;8.30;2.95;;;16.00;99.90;;;;;;5013820;28;20296;-73
2023/05/09 06:46:57;;;;;;;6.20;2.55;;;16.10;99.90;;;;;;5014507;28;20069;-72
2023/05/09 06:49:24;;;;;;;5.28;2.40;;;16.10;99.90;;;;;;5014074;28;20028;-73
2023/05/09 06:51:50;;;;;;;6.20;2.83;;;16.10;99.90;;;;;;5013953;28;20029;-71
2023/05/09 06:54:16;;;;;;;11.43;2.85;;;16.30;99.90;;;;;;5014157;28;20030;-69
2023/05/09 06:56:42;;;;;;;8.37;2.57;;;16.50;99.90;;;;;;5015554;28;20105;-66
2023/05/09 06:59:12;;;;;;;4.07;2.13;;;16.60;99.90;;;;;;5012973;28;20026;-72
2023/05/09 07:01:39;;;;;;;7.93;2.85;;;16.80;99.90;;;;;;5013869;28;20018;-73
2023/05/09 07:04:05;;;;;;;5.75;2.28;;;17.00;99.90;;;;;;5013878;28;20462;-73
2023/05/09 07:06:32;;;;;;;8.27;3.00;;;17.20;99.90;;;;;;5014573;28;20104;-75
2023/05/09 07:08:58;;;;;;;6.13;2.70;;;17.20;99.90;;;;;;5013979;28;20057;-74
2023/05/09 07:11:24;;;;;;;6.85;2.50;;;17.30;99.90;;;;;;5013594;28;20018;-76
2023/05/09 07:13:50;;;;;;;9.88;2.63;;;17.40;99.90;;;;;;5013488;28;20029;-78
2023/05/09 07:16:21;;;;;;;8.70;2.77;;;17.60;99.90;;;;;;5013919;28;20022;-74
2023/05/09 07:18:47;;;;;;;7.22;2.30;;;17.50;99.90;;;;;;5013479;28;20269;-73
2023/05/09 07:21:13;;;;;;;6.57;2.50;;;17.60;99.90;;;;;;5013376;28;20022;-72
2023/05/09 07:23:39;;;;;;;6.63;2.58;;;17.70;99.90;;;;;;5013171;28;20038;-74
2023/05/09 07:26:05;;;;;;;11.05;2.75;;;17.70;99.90;;;;;;5012910;28;20125;-74
2023/05/09 07:28:31;;;;;;;8.50;2.25;;;17.70;99.90;;;;;;5013281;28;20056;-77
2023/05/09 07:30:58;;;;;;;6.57;2.45;;;17.70;99.90;;;;;;5013403;28;20478;-77
2023/05/09 07:33:24;;;;;;;10.25;2.78;;;17.80;99.90;;;;;;5028298;28;20395;-78
2023/05/09 07:35:51;;;;;;;8.05;2.63;;;17.70;99.90;;;;;;5011895;28;20033;-78
2023/05/09 07:38:17;;;;;;;8.60;2.85;;;17.80;99.90;;;;;;5011981;28;20136;-78
2023/05/09 07:40:43;;;;;;;9.93;2.63;;;17.80;99.90;;;;;;5013307;28;20034;-76
2023/05/09 07:43:09;;;;;;;9.45;2.30;;;17.70;99.90;;;;;;5011016;28;20197;-77
2023/05/09 07:45:36;;;;;;;16.02;2.85;;;17.80;99.90;;;;;;5012821;28;20136;-78
2023/05/09 07:48:02;;;;;;;7.63;2.40;;;18.00;99.90;;;;;;5013166;28;20064;-77
2023/05/09 07:50:28;;;;;;;8.13;2.60;;;18.10;99.90;;;;;;5013295;28;20022;-76
2023/05/09 07:52:54;;;;;;;12.13;2.65;;;18.00;99.90;;;;;;5004638;28;20113;-73
2023/05/09 07:55:20;;;;;;;13.07;2.55;;;18.00;99.90;;;;;;4995573;28;20018;-75
2023/05/09 07:57:46;;;;;;;13.10;2.70;;;18.00;99.90;;;;;;4992378;28;20055;-76
2023/05/09 08:00:13;;;;;;;8.27;2.90;;;18.00;99.90;;;;;;4991943;28;20038;-77
2023/05/09 08:02:40;;;;;;;10.18;2.50;;;18.10;99.90;;;;;;5007279;28;20069;-76
2023/05/09 08:05:07;;;;;;;8.35;2.97;;;18.10;99.90;;;;;;4992475;28;20375;-74
2023/05/09 08:07:33;;;;;;;5.68;2.30;;;18.00;99.90;;;;;;4992214;28;20117;-75
2023/05/09 08:09:59;;;;;;;7.63;2.60;;;18.10;99.90;;;;;;4991919;28;20022;-75
2023/05/09 08:12:25;;;;;;;8.85;3.05;;;18.30;99.90;;;;;;4992488;28;20034;-74
2023/05/09 08:14:51;;;;;;;7.82;2.50;;;18.40;99.90;;;;;;4991718;28;20022;-73
2023/05/09 08:17:18;;;;;;;11.32;2.35;;;18.50;99.90;;;;;;4991103;28;20395;-72
2023/05/09 08:19:44;;;;;;;9.20;3.03;;;18.70;99.90;;;;;;4997822;28;20137;-76
2023/05/09 08:22:17;;;;;;;10.38;2.50;;;18.50;99.90;;;;;;5012297;28;20104;-74
2023/05/09 08:24:44;;;;;;;7.35;2.67;;;18.70;99.90;;;;;;5011146;28;20057;-72
2023/05/09 08:27:12;;;;;;;7.97;2.60;;;18.90;99.90;;;;;;5012404;28;20544;-73
2023/05/09 08:29:41;;;;;;;8.95;2.22;;;19.20;99.90;;;;;;5012300;28;20022;-75
2023/05/09 08:32:08;;;;;;;7.60;2.35;;;19.30;99.90;;;;;;5012842;28;20108;-74
2023/05/09 08:34:36;;;;;;;6.28;2.42;;;19.30;99.90;;;;;;5012312;28;20102;-74
2023/05/09 08:37:03;;;;;;;7.40;2.53;;;19.50;99.90;;;;;;5013597;28;20022;-72
2023/05/09 08:39:30;;;;;;;10.48;3.15;;;19.40;99.90;;;;;;5010892;28;20113;-73
2023/05/09 08:41:57;;;;;;;;;;;19.50;99.90;;;;;;5012167;28;20492;-73
2023/05/09 08:44:25;;;;;;;8.15;2.80;;;19.60;99.90;;;;;;5011673;28;19910;-74
2023/05/09 08:47:02;;;;;;;8.73;2.53;;;19.80;99.90;;;;;;5011810;28;20072;-73
2023/05/09 08:49:28;;;;;;;11.43;2.97;;;19.80;99.90;;;;;;5011851;28;20026;-74
2023/05/09 08:51:56;;;;;;;5.45;2.13;;;20.20;99.90;;;;;;5011561;28;20400;-73
2023/05/09 08:54:23;;;;;;;6.68;2.50;;;19.90;99.90;;;;;;5011450;28;20164;-75
2023/05/09 08:56:50;;;;;;;9.20;2.58;;;19.50;99.90;;;;;;5011888;28;20078;-75
2023/05/09 08:59:17;;;;;;;11.52;2.55;;;19.40;99.90;;;;;;5010234;28;20355;-75
2023/05/09 09:01:44;;;;;;;6.90;2.40;;;19.40;99.90;;;;;;5011682;28;20099;-74
2023/05/09 09:04:13;;;;;;;11.20;2.60;;;19.40;99.90;;;;;;5011895;28;20327;-74
2023/05/09 09:06:39;;;;;;;9.30;2.65;;;19.50;99.90;;;;;;5011409;28;20117;-74
2023/05/09 09:09:07;;;;;;;12.70;3.30;;;19.20;99.90;;;;;;5011313;28;20104;-73
2023/05/09 09:11:34;;;;;;;6.88;2.50;;;19.20;99.90;;;;;;5011223;28;20109;-70
2023/05/09 09:14:05;;;;;;;7.85;2.75;;;19.20;99.90;;;;;;5011703;28;20050;-75
2023/05/09 09:16:34;;;;;;;7.93;2.45;;;19.20;99.90;;;;;;5011772;28;20026;-75
2023/05/09 09:19:01;;;;;;;8.07;2.53;;;19.30;99.90;;;;;;5012723;28;20029;-76
2023/05/09 09:21:27;;;;;;;;;;;19.40;99.90;;;;;;5010469;28;20018;-74
2023/05/09 09:23:55;;;;;;;8.45;3.08;;;19.50;99.90;;;;;;5014688;28;20262;-75
2023/05/09 09:26:21;;;;;;;8.95;2.42;;;19.50;99.90;;;;;;5015099;28;20041;-73
2023/05/09 09:28:47;;;;;;;4.63;2.13;;;19.40;99.90;;;;;;5015007;28;20049;-74
2023/05/09 09:31:21;;;;;;;9.77;2.65;;;19.40;99.90;;;;;;5015245;28;20052;-73
2023/05/09 09:33:48;;;;;;;8.10;2.70;;;19.60;99.90;;;;;;5015459;28;20030;-74
2023/05/09 09:36:15;;;;;;;6.15;2.70;;;19.50;99.90;;;;;;5014904;28;20478;-74
2023/05/09 09:38:44;;;;;;;;;;;19.70;99.90;;;;;;5015261;28;20033;-73
2023/05/09 09:41:12;;;;;;;9.10;4.28;;;19.80;99.90;;;;;;5013204;28;19996;-74
2023/05/09 09:43:43;;;;;;;8.73;2.72;;;19.70;99.90;;;;;;5014650;28;20124;-74
2023/05/09 09:46:09;;;;;;;8.10;3.05;;;19.40;99.90;;;;;;5013555;28;20156;-73
2023/05/09 09:48:36;;;;;;;6.15;2.90;;;19.50;99.90;;;;;;5014931;28;20084;-73
2023/05/09 09:51:11;;;;;;;9.63;2.92;;;19.60;99.90;;;;;;5014674;28;20025;-74
2023/05/09 09:53:42;;;;;;;5.85;2.30;;;19.80;99.90;;;;;;5014712;28;20044;-74
2023/05/09 09:56:14;;;;;;;5.40;2.90;;;20.30;99.90;;;;;;5014340;28;20030;-73
2023/05/09 09:58:46;;;;;;;7.80;2.15;;;20.60;99.90;;;;;;5014442;28;20057;-75
2023/05/09 10:01:17;;;;;;;6.65;2.75;;;20.60;99.90;;;;;;5014732;28;20375;-74
2023/05/09 10:03:45;;;;;;;8.98;2.95;;;20.40;99.90;;;;;;5014239;28;20048;-73
2023/05/09 10:06:12;;;;;;;9.20;2.90;;;20.10;99.90;;;;;;5014471;28;20037;-74
2023/05/09 10:08:40;;;;;;;7.20;3.00;;;20.70;99.90;;;;;;5014673;28;20058;-74
2023/05/09 10:11:06;;;;;;;6.63;2.65;;;21.20;99.90;;;;;;5014823;28;20026;-73
2023/05/09 10:13:37;;;;;;;10.38;3.22;;;20.80;99.90;;;;;;5014524;28;20053;-74
2023/05/09 10:16:04;;;;;;;6.93;2.90;;;20.40;99.90;;;;;;5013011;28;20198;-74
2023/05/09 10:18:31;;;;;;;6.47;2.70;;;20.60;99.90;;;;;;5014260;28;20041;-75
2023/05/09 10:21:02;;;;;;;11.35;2.92;;;20.40;99.90;;;;;;5014503;28;20026;-73
2023/05/09 10:23:42;;;;;;;7.00;2.47;;;20.80;99.90;;;;;;5014517;28;20121;-75
2023/05/09 10:26:24;;;;;;;7.30;2.70;;;20.80;99.90;;;;;;5012856;28;20050;-73
2023/05/09 10:28:53;;;;;;;8.95;2.65;;;20.90;99.90;;;;;;5014162;28;20109;-73
2023/05/09 10:31:26;;;;;;;7.03;2.15;;;21.10;99.90;;;;;;5014133;28;20457;-73
2023/05/09 10:33:54;;;;;;;7.28;2.45;;;21.40;99.90;;;;;;5012753;28;20108;-74
2023/05/09 10:36:24;;;;;;;9.43;2.90;;;21.50;99.90;;;;;;5013945;28;20482;-74
2023/05/09 10:38:53;;;;;;;9.50;3.00;;;21.50;99.90;;;;;;5014790;28;20030;-72
2023/05/09 10:41:23;;;;;;;7.30;2.70;;;22.00;99.90;;;;;;5014309;28;20018;-74
2023/05/09 10:43:49;;;;;;;7.20;2.80;;;21.70;99.90;;;;;;5013917;28;20038;-74
2023/05/09 10:46:16;;;;;;;17.13;3.08;;;21.30;99.90;;;;;;5014591;28;20028;-73
2023/05/09 10:48:43;;;;;;;7.07;2.70;;;21.50;99.90;;;;;;5014273;28;20057;-73
2023/05/09 10:51:11;;;;;;;8.13;2.88;;;21.80;99.90;;;;;;5013386;28;20030;-73
2023/05/09 10:53:50;;;;;;;10.88;2.67;;;21.70;99.90;;;;;;5013703;28;20057;-74
2023/05/09 10:56:30;;;;;;;8.00;2.78;;;22.00;99.90;;;;;;5012111;28;20037;-74
2023/05/09 10:59:00;;;;;;;6.32;2.38;;;21.70;99.90;;;;;;5013293;28;20026;-74
2023/05/09 11:01:33;;;;;;;7.75;2.60;;;21.90;99.90;;;;;;5014027;28;20033;-73
2023/05/09 11:04:01;;;;;;;16.25;2.40;;;21.60;99.90;;;;;;5014056;28;20032;-73
2023/05/09 11:06:50;;;;;;;6.05;2.55;;;21.90;99.90;;;;;;5014002;28;20052;-73
2023/05/09 11:09:31;;;;;;;7.47;2.63;;;21.90;99.90;;;;;;5013859;28;20423;-73
2023/05/09 11:12:08;;;;;;;9.73;2.60;;;22.10;99.90;;;;;;5013863;28;20033;-74
2023/05/09 11:14:46;;;;;;;7.60;2.15;;;22.30;99.90;;;;;;5013715;28;20029;-73
2023/05/09 11:17:21;;;;;;;10.18;2.42;;;21.80;99.90;;;;;;5013928;28;20022;-75
2023/05/09 11:19:47;;;;;;;6.47;2.08;;;21.00;99.90;;;;;;5014047;28;20030;-72
2023/05/09 11:22:19;;;;;;;7.47;2.38;;;20.70;99.90;;;;;;5028620;28;20033;-73
2023/05/09 11:24:46;;;;;;;8.48;2.45;;;20.90;99.90;;;;;;5013322;28;20050;-71
2023/05/09 11:27:19;;;;;;;6.88;2.20;;;21.60;99.90;;;;;;5013770;28;20030;-73
2023/05/09 11:29:50;;;;;;;8.32;2.58;;;21.60;99.90;;;;;;5013300;28;20044;-74
2023/05/09 11:32:16;;;;;;;7.70;2.80;;;21.80;99.90;;;;;;5012418;28;20113;-74
2023/05/09 11:34:46;;;;;;;6.07;2.30;;;22.20;99.90;;;;;;5013665;28;20018;-74
2023/05/09 11:37:19;;;;;;;4.68;2.40;;;22.30;99.90;;;;;;5013002;28;20088;-72
2023/05/09 11:40:04;;;;;;;8.30;2.72;;;21.60;99.90;;;;;;5013560;28;20109;-72
2023/05/09 11:42:31;;;;;;;9.60;2.67;;;22.00;99.90;;;;;;5013027;28;20041;-73
2023/05/09 11:44:58;;;;;;;8.82;2.40;;;22.10;99.90;;;;;;5012549;28;20018;-73
2023/05/09 11:47:30;;;;;;;7.45;2.40;;;21.40;99.90;;;;;;5013362;28;20465;-72
2023/05/09 11:49:56;;;;;;;9.18;2.60;;;21.50;99.90;;;;;;5012733;28;20022;-70
2023/05/09 11:52:22;;;;;;;6.95;2.58;;;21.70;99.90;;;;;;5012906;28;20068;-73
2023/05/09 11:54:49;;;;;;;5.50;2.20;;;21.80;99.90;;;;;;5012921;28;20025;-72
2023/05/09 11:57:18;;;;;;;4.47;2.20;;;21.80;99.90;;;;;;5012312;28;20038;-74
2023/05/09 11:59:45;;;;;;;8.18;2.47;;;21.60;99.90;;;;;;5012148;28;20026;-73
2023/05/09 12:02:12;;;;;;;7.28;2.70;;;21.40;99.90;;;;;;5012401;28;20033;-73
2023/05/09 12:04:38;;;;;;;8.70;2.30;;;21.70;99.90;;;;;;5012820;28;20038;-73
2023/05/09 12:07:04;;;;;;;16.23;2.47;;;22.30;99.90;;;;;;5013114;28;20417;-70
2023/05/09 12:09:31;;;;;;;7.10;2.13;;;22.90;99.90;;;;;;5013039;28;20482;-74
2023/05/09 12:11:58;;;;;;;5.55;2.30;;;22.80;99.90;;;;;;5013112;28;20026;-72
2023/05/09 12:14:33;;;;;;;;;;;22.60;99.90;;;;;;5013170;28;20022;-73
2023/05/09 12:17:00;;;;;;;6.63;2.50;;;22.40;99.90;;;;;;5013022;28;19912;-73
2023/05/09 12:19:27;;;;;;;7.90;2.03;;;22.20;99.90;;;;;;5012958;28;20053;-72
2023/05/09 12:21:58;;;;;;;8.98;2.10;;;22.30;99.90;;;;;;5013312;28;20026;-71
2023/05/09 12:24:27;;;;;;;4.78;1.85;;;21.90;99.90;;;;;;5012852;28;20062;-73
2023/05/09 12:26:54;;;;;;;9.23;2.13;;;21.70;99.90;;;;;;5013378;28;20029;-74
2023/05/09 12:29:21;;;;;;;5.45;1.92;;;22.10;99.90;;;;;;5013290;28;20026;-74
2023/05/09 12:31:48;;;;;;;9.75;2.10;;;21.80;99.90;;;;;;5013208;28;20022;-74
2023/05/09 12:34:15;;;;;;;8.55;1.88;;;22.40;99.90;;;;;;5013193;28;20121;-75
2023/05/09 12:36:52;;;;;;;4.75;1.50;;;23.10;99.90;;;;;;5011791;28;20034;-75
2023/05/09 12:39:21;;;;;;;6.13;1.85;;;23.30;99.90;;;;;;5013524;28;20064;-74
2023/05/09 12:41:51;;;;;;;7.53;1.70;;;23.90;99.90;;;;;;5013201;28;20046;-74
2023/05/09 12:44:21;;;;;;;6.45;2.00;;;24.10;99.90;;;;;;5013157;28;20386;-75
2023/05/09 12:47:01;;;;;;;10.07;1.90;;;24.30;99.90;;;;;;5013010;28;20026;-75
2023/05/09 12:49:29;;;;;;;10.95;2.50;;;24.60;99.90;;;;;;5013133;28;20037;-75
2023/05/09 12:51:56;;;;;;;16.00;3.00;;;24.80;99.90;;;;;;5012811;28;20284;-74